sensor_id;sensor_type;location;lat;lon;timestamp;temperature;humidity
15203;DHT22;7702;51.046;5.184;2022-08-18T00:02:17;18.00;99.90
15203;DHT22;7702;51.046;5.184;2022-08-18T00:04:45;18.00;99.90
15203;DHT22;7702;51.046;5.184;2022-08-18T00:07:14;18.00;99.90
15203;DHT22;7702;51.046;5.184;2022-08-18T00:09:41;18.00;99.90
15203;DHT22;7702;51.046;5.184;2022-08-18T00:12:14;18.00;99.90
15203;DHT22;7702;51.046;5.184;2022-08-18T00:14:40;18.10;99.90
15203;DHT22;7702;51.046;5.184;2022-08-18T00:17:07;18.20;99.90
15203;DHT22;7702;51.046;5.184;2022-08-18T00:19:33;18.30;99.90
15203;DHT22;7702;51.046;5.184;2022-08-18T00:21:59;18.30;99.90
15203;DHT22;7702;51.046;5.184;2022-08-18T00:24:25;18.30;99.90
15203;DHT22;7702;51.046;5.184;2022-08-18T00:26:50;18.40;99.90
15203;DHT22;7702;51.046;5.184;2022-08-18T00:29:17;18.30;99.90
15203;DHT22;7702;51.046;5.184;2022-08-18T00:31:43;18.30;99.90
15203;DHT22;7702;51.046;5.184;2022-08-18T00:34:08;18.20;99.90
15203;DHT22;7702;51.046;5.184;2022-08-18T00:36:34;18.20;99.90
15203;DHT22;7702;51.046;5.184;2022-08-18T00:39:01;18.20;99.90
15203;DHT22;7702;51.046;5.184;2022-08-18T00:41:27;18.20;99.90
15203;DHT22;7702;51.046;5.184;2022-08-18T00:43:53;18.20;99.90
15203;DHT22;7702;51.046;5.184;2022-08-18T00:46:27;18.10;99.90
15203;DHT22;7702;51.046;5.184;2022-08-18T00:48:54;18.10;99.90
15203;DHT22;7702;51.046;5.184;2022-08-18T00:51:48;18.10;99.90
15203;DHT22;7702;51.046;5.184;2022-08-18T00:54:19;18.10;99.90
15203;DHT22;7702;51.046;5.184;2022-08-18T00:56:49;18.20;99.90
15203;DHT22;7702;51.046;5.184;2022-08-18T01:02:02;18.30;99.90
15203;DHT22;7702;51.046;5.184;2022-08-18T01:04:41;18.30;99.90
15203;DHT22;7702;51.046;5.184;2022-08-18T01:07:31;18.40;99.90
15203;DHT22;7702;51.046;5.184;2022-08-18T01:09:58;18.40;99.90
15203;DHT22;7702;51.046;5.184;2022-08-18T01:12:25;18.40;99.90
15203;DHT22;7702;51.046;5.184;2022-08-18T01:14:52;18.40;99.90
15203;DHT22;7702;51.046;5.184;2022-08-18T01:17:19;18.40;99.90
15203;DHT22;7702;51.046;5.184;2022-08-18T01:20:05;18.50;99.90
15203;DHT22;7702;51.046;5.184;2022-08-18T01:22:54;18.50;99.90
15203;DHT22;7702;51.046;5.184;2022-08-18T01:25:21;18.60;99.90
15203;DHT22;7702;51.046;5.184;2022-08-18T01:28:05;18.60;99.90
15203;DHT22;7702;51.046;5.184;2022-08-18T01:30:43;18.60;99.90
15203;DHT22;7702;51.046;5.184;2022-08-18T01:33:09;18.60;99.90
15203;DHT22;7702;51.046;5.184;2022-08-18T01:35:37;18.60;99.90
15203;DHT22;7702;51.046;5.184;2022-08-18T01:38:05;18.60;99.90
15203;DHT22;7702;51.046;5.184;2022-08-18T01:40:30;18.70;99.90
15203;DHT22;7702;51.046;5.184;2022-08-18T01:42:57;18.70;99.90
15203;DHT22;7702;51.046;5.184;2022-08-18T01:45:22;18.70;99.90
15203;DHT22;7702;51.046;5.184;2022-08-18T01:47:48;18.80;99.90
15203;DHT22;7702;51.046;5.184;2022-08-18T01:50:16;18.80;99.90
15203;DHT22;7702;51.046;5.184;2022-08-18T01:52:42;18.80;99.90
15203;DHT22;7702;51.046;5.184;2022-08-18T01:55:08;18.90;99.90
15203;DHT22;7702;51.046;5.184;2022-08-18T01:57:38;18.90;99.90
15203;DHT22;7702;51.046;5.184;2022-08-18T02:00:11;18.90;99.90
15203;DHT22;7702;51.046;5.184;2022-08-18T02:02:37;18.90;99.90
15203;DHT22;7702;51.046;5.184;2022-08-18T02:05:10;18.80;99.90
15203;DHT22;7702;51.046;5.184;2022-08-18T02:07:37;18.90;99.90
15203;DHT22;7702;51.046;5.184;2022-08-18T02:10:07;18.90;99.90
15203;DHT22;7702;51.046;5.184;2022-08-18T02:12:35;18.90;99.90
15203;DHT22;7702;51.046;5.184;2022-08-18T02:15:02;18.90;99.90
15203;DHT22;7702;51.046;5.184;2022-08-18T02:17:28;18.90;99.90
15203;DHT22;7702;51.046;5.184;2022-08-18T02:19:54;18.90;99.90
15203;DHT22;7702;51.046;5.184;2022-08-18T02:22:20;18.90;99.90
15203;DHT22;7702;51.046;5.184;2022-08-18T02:24:47;18.90;99.90
15203;DHT22;7702;51.046;5.184;2022-08-18T02:27:14;19.00;99.90
15203;DHT22;7702;51.046;5.184;2022-08-18T02:29:41;19.00;99.90
15203;DHT22;7702;51.046;5.184;2022-08-18T02:32:07;19.00;99.90
15203;DHT22;7702;51.046;5.184;2022-08-18T02:34:33;18.90;99.90
15203;DHT22;7702;51.046;5.184;2022-08-18T02:36:59;18.80;99.90
15203;DHT22;7702;51.046;5.184;2022-08-18T02:39:25;18.70;99.90
15203;DHT22;7702;51.046;5.184;2022-08-18T02:41:51;18.70;99.90
15203;DHT22;7702;51.046;5.184;2022-08-18T02:44:18;18.60;99.90
15203;DHT22;7702;51.046;5.184;2022-08-18T02:46:44;18.50;99.90
15203;DHT22;7702;51.046;5.184;2022-08-18T02:49:09;18.60;99.90
15203;DHT22;7702;51.046;5.184;2022-08-18T02:51:36;18.50;99.90
15203;DHT22;7702;51.046;5.184;2022-08-18T02:54:02;18.50;99.90
15203;DHT22;7702;51.046;5.184;2022-08-18T02:56:33;18.50;99.90
15203;DHT22;7702;51.046;5.184;2022-08-18T02:59:03;18.50;99.90
15203;DHT22;7702;51.046;5.184;2022-08-18T03:01:35;18.50;99.90
15203;DHT22;7702;51.046;5.184;2022-08-18T03:04:03;18.50;99.90
15203;DHT22;7702;51.046;5.184;2022-08-18T03:06:31;18.60;99.90
15203;DHT22;7702;51.046;5.184;2022-08-18T03:08:57;18.60;99.90
15203;DHT22;7702;51.046;5.184;2022-08-18T03:11:25;18.60;99.90
15203;DHT22;7702;51.046;5.184;2022-08-18T03:13:52;18.60;99.90
15203;DHT22;7702;51.046;5.184;2022-08-18T03:16:18;18.60;99.90
15203;DHT22;7702;51.046;5.184;2022-08-18T03:18:46;18.60;99.90
15203;DHT22;7702;51.046;5.184;2022-08-18T03:21:15;18.60;99.90
15203;DHT22;7702;51.046;5.184;2022-08-18T03:23:41;18.50;99.90
15203;DHT22;7702;51.046;5.184;2022-08-18T03:26:09;18.50;99.90
15203;DHT22;7702;51.046;5.184;2022-08-18T03:28:40;18.50;99.90
15203;DHT22;7702;51.046;5.184;2022-08-18T03:31:07;18.50;99.90
15203;DHT22;7702;51.046;5.184;2022-08-18T03:33:33;18.50;99.90
15203;DHT22;7702;51.046;5.184;2022-08-18T03:36:04;18.50;99.90
15203;DHT22;7702;51.046;5.184;2022-08-18T03:38:30;18.50;99.90
15203;DHT22;7702;51.046;5.184;2022-08-18T03:40:56;18.50;99.90
15203;DHT22;7702;51.046;5.184;2022-08-18T03:43:22;18.50;99.90
15203;DHT22;7702;51.046;5.184;2022-08-18T03:45:49;18.60;99.90
15203;DHT22;7702;51.046;5.184;2022-08-18T03:48:15;18.50;99.90
15203;DHT22;7702;51.046;5.184;2022-08-18T03:50:41;18.50;99.90
15203;DHT22;7702;51.046;5.184;2022-08-18T03:53:06;18.60;99.90
15203;DHT22;7702;51.046;5.184;2022-08-18T03:55:32;18.60;99.90
15203;DHT22;7702;51.046;5.184;2022-08-18T03:58:01;18.60;99.90
15203;DHT22;7702;51.046;5.184;2022-08-18T04:00:31;18.60;99.90
15203;DHT22;7702;51.046;5.184;2022-08-18T04:02:58;18.70;99.90
15203;DHT22;7702;51.046;5.184;2022-08-18T04:05:27;18.60;99.90
15203;DHT22;7702;51.046;5.184;2022-08-18T04:07:54;18.60;99.90
15203;DHT22;7702;51.046;5.184;2022-08-18T04:10:20;18.60;99.90
15203;DHT22;7702;51.046;5.184;2022-08-18T04:12:46;18.60;99.90
15203;DHT22;7702;51.046;5.184;2022-08-18T04:15:11;18.60;99.90
15203;DHT22;7702;51.046;5.184;2022-08-18T04:17:37;18.60;99.90
15203;DHT22;7702;51.046;5.184;2022-08-18T04:20:04;18.60;99.90
15203;DHT22;7702;51.046;5.184;2022-08-18T04:22:29;18.60;99.90
15203;DHT22;7702;51.046;5.184;2022-08-18T04:24:58;18.60;99.90
15203;DHT22;7702;51.046;5.184;2022-08-18T04:27:26;18.60;99.90
15203;DHT22;7702;51.046;5.184;2022-08-18T04:29:52;18.60;99.90
15203;DHT22;7702;51.046;5.184;2022-08-18T04:32:21;18.60;99.90
15203;DHT22;7702;51.046;5.184;2022-08-18T04:34:47;18.60;99.90
15203;DHT22;7702;51.046;5.184;2022-08-18T04:37:12;18.60;99.90
15203;DHT22;7702;51.046;5.184;2022-08-18T04:39:40;18.60;99.90
15203;DHT22;7702;51.046;5.184;2022-08-18T04:42:06;18.50;99.90
15203;DHT22;7702;51.046;5.184;2022-08-18T04:44:33;18.40;99.90
15203;DHT22;7702;51.046;5.184;2022-08-18T04:47:00;18.50;99.90
15203;DHT22;7702;51.046;5.184;2022-08-18T04:49:26;18.50;99.90
15203;DHT22;7702;51.046;5.184;2022-08-18T04:51:53;18.50;99.90
15203;DHT22;7702;51.046;5.184;2022-08-18T04:54:39;18.60;99.90
15203;DHT22;7702;51.046;5.184;2022-08-18T04:57:13;18.60;99.90
15203;DHT22;7702;51.046;5.184;2022-08-18T04:59:41;18.60;99.90
15203;DHT22;7702;51.046;5.184;2022-08-18T05:02:08;18.60;99.90
15203;DHT22;7702;51.046;5.184;2022-08-18T05:04:38;18.70;99.90
15203;DHT22;7702;51.046;5.184;2022-08-18T05:07:06;18.90;99.90
15203;DHT22;7702;51.046;5.184;2022-08-18T05:09:32;18.80;99.90
15203;DHT22;7702;51.046;5.184;2022-08-18T05:12:00;18.80;99.90
15203;DHT22;7702;51.046;5.184;2022-08-18T05:14:26;18.90;99.90
15203;DHT22;7702;51.046;5.184;2022-08-18T05:16:52;18.90;99.90
15203;DHT22;7702;51.046;5.184;2022-08-18T05:19:19;18.90;99.90
15203;DHT22;7702;51.046;5.184;2022-08-18T05:21:48;18.80;99.90
15203;DHT22;7702;51.046;5.184;2022-08-18T05:24:15;18.80;99.90
15203;DHT22;7702;51.046;5.184;2022-08-18T05:26:42;18.70;99.90
15203;DHT22;7702;51.046;5.184;2022-08-18T05:29:10;18.70;99.90
15203;DHT22;7702;51.046;5.184;2022-08-18T05:31:36;18.80;99.90
15203;DHT22;7702;51.046;5.184;2022-08-18T05:34:02;18.70;99.90
15203;DHT22;7702;51.046;5.184;2022-08-18T05:36:45;18.80;99.90
15203;DHT22;7702;51.046;5.184;2022-08-18T05:41:45;19.00;99.90
15203;DHT22;7702;51.046;5.184;2022-08-18T05:44:14;19.10;99.90
15203;DHT22;7702;51.046;5.184;2022-08-18T05:47:27;19.10;99.90
15203;DHT22;7702;51.046;5.184;2022-08-18T05:49:52;19.10;99.90
15203;DHT22;7702;51.046;5.184;2022-08-18T05:52:26;19.10;99.90
15203;DHT22;7702;51.046;5.184;2022-08-18T05:54:55;19.10;99.90
15203;DHT22;7702;51.046;5.184;2022-08-18T05:58:09;19.10;99.90
15203;DHT22;7702;51.046;5.184;2022-08-18T06:00:38;19.00;99.90
15203;DHT22;7702;51.046;5.184;2022-08-18T06:03:48;19.10;99.90
15203;DHT22;7702;51.046;5.184;2022-08-18T06:06:19;19.10;99.90
15203;DHT22;7702;51.046;5.184;2022-08-18T06:11:21;19.30;99.90
15203;DHT22;7702;51.046;5.184;2022-08-18T06:13:46;19.40;99.90
15203;DHT22;7702;51.046;5.184;2022-08-18T06:16:19;19.40;99.90
15203;DHT22;7702;51.046;5.184;2022-08-18T06:19:20;19.20;99.90
15203;DHT22;7702;51.046;5.184;2022-08-18T06:35:49;19.00;99.90
15203;DHT22;7702;51.046;5.184;2022-08-18T06:49:04;19.30;99.90
15203;DHT22;7702;51.046;5.184;2022-08-18T06:51:31;19.30;99.90
15203;DHT22;7702;51.046;5.184;2022-08-18T06:59:25;19.70;99.90
15203;DHT22;7702;51.046;5.184;2022-08-18T07:02:00;19.80;99.90
15203;DHT22;7702;51.046;5.184;2022-08-18T07:04:37;19.90;99.90
15203;DHT22;7702;51.046;5.184;2022-08-18T07:07:17;20.00;99.90
15203;DHT22;7702;51.046;5.184;2022-08-18T07:09:45;20.00;99.90
15203;DHT22;7702;51.046;5.184;2022-08-18T07:12:19;20.10;99.90
15203;DHT22;7702;51.046;5.184;2022-08-18T07:14:49;20.10;99.90
15203;DHT22;7702;51.046;5.184;2022-08-18T07:20:06;20.00;99.90
15203;DHT22;7702;51.046;5.184;2022-08-18T07:22:57;20.20;99.90
15203;DHT22;7702;51.046;5.184;2022-08-18T07:25:40;20.30;99.90
15203;DHT22;7702;51.046;5.184;2022-08-18T07:28:06;20.30;99.90
15203;DHT22;7702;51.046;5.184;2022-08-18T07:30:36;20.30;99.90
15203;DHT22;7702;51.046;5.184;2022-08-18T07:33:21;20.40;99.90
15203;DHT22;7702;51.046;5.184;2022-08-18T07:35:58;20.70;99.90
15203;DHT22;7702;51.046;5.184;2022-08-18T07:38:57;21.00;99.90
15203;DHT22;7702;51.046;5.184;2022-08-18T07:41:40;21.20;99.90
15203;DHT22;7702;51.046;5.184;2022-08-18T07:44:18;21.30;99.90
15203;DHT22;7702;51.046;5.184;2022-08-18T07:47:06;21.10;99.90
15203;DHT22;7702;51.046;5.184;2022-08-18T07:49:35;21.20;99.90
15203;DHT22;7702;51.046;5.184;2022-08-18T07:52:06;21.50;99.90
15203;DHT22;7702;51.046;5.184;2022-08-18T07:55:06;21.80;99.90
15203;DHT22;7702;51.046;5.184;2022-08-18T08:00:24;21.90;99.90
15203;DHT22;7702;51.046;5.184;2022-08-18T08:16:45;21.90;99.90
15203;DHT22;7702;51.046;5.184;2022-08-18T08:33:44;22.20;99.90
15203;DHT22;7702;51.046;5.184;2022-08-18T08:36:20;22.80;99.90
15203;DHT22;7702;51.046;5.184;2022-08-18T08:38:54;23.00;99.90
15203;DHT22;7702;51.046;5.184;2022-08-18T08:41:58;23.70;99.90
15203;DHT22;7702;51.046;5.184;2022-08-18T08:44:33;24.00;99.90
15203;DHT22;7702;51.046;5.184;2022-08-18T08:47:08;24.00;99.90
15203;DHT22;7702;51.046;5.184;2022-08-18T08:49:55;23.50;99.90
15203;DHT22;7702;51.046;5.184;2022-08-18T08:55:02;22.90;99.90
15203;DHT22;7702;51.046;5.184;2022-08-18T08:57:34;23.00;99.90
15203;DHT22;7702;51.046;5.184;2022-08-18T09:00:06;23.10;99.90
15203;DHT22;7702;51.046;5.184;2022-08-18T09:11:31;23.40;99.90
15203;DHT22;7702;51.046;5.184;2022-08-18T09:30:51;26.70;99.90
15203;DHT22;7702;51.046;5.184;2022-08-18T09:38:28;27.50;99.90
15203;DHT22;7702;51.046;5.184;2022-08-18T09:41:19;27.80;99.90
15203;DHT22;7702;51.046;5.184;2022-08-18T09:44:07;28.10;99.90
15203;DHT22;7702;51.046;5.184;2022-08-18T09:51:58;26.90;99.90
15203;DHT22;7702;51.046;5.184;2022-08-18T09:54:32;25.90;99.90
15203;DHT22;7702;51.046;5.184;2022-08-18T09:57:14;25.10;99.90
15203;DHT22;7702;51.046;5.184;2022-08-18T10:07:50;24.00;99.90
15203;DHT22;7702;51.046;5.184;2022-08-18T10:13:41;24.20;99.90
15203;DHT22;7702;51.046;5.184;2022-08-18T10:21:29;28.10;99.90
15203;DHT22;7702;51.046;5.184;2022-08-18T10:24:16;28.50;99.90
15203;DHT22;7702;51.046;5.184;2022-08-18T10:42:41;26.80;99.90
15203;DHT22;7702;51.046;5.184;2022-08-18T10:47:38;26.00;99.90
15203;DHT22;7702;51.046;5.184;2022-08-18T10:50:19;25.70;99.90
15203;DHT22;7702;51.046;5.184;2022-08-18T10:53:10;25.40;99.90
15203;DHT22;7702;51.046;5.184;2022-08-18T10:58:39;25.50;99.90
15203;DHT22;7702;51.046;5.184;2022-08-18T11:06:39;26.00;99.90
15203;DHT22;7702;51.046;5.184;2022-08-18T11:09:07;26.90;99.90
15203;DHT22;7702;51.046;5.184;2022-08-18T11:11:42;27.20;99.90
15203;DHT22;7702;51.046;5.184;2022-08-18T11:14:36;28.00;99.90
15203;DHT22;7702;51.046;5.184;2022-08-18T11:19:41;27.40;99.90
15203;DHT22;7702;51.046;5.184;2022-08-18T11:22:23;26.70;99.90
15203;DHT22;7702;51.046;5.184;2022-08-18T11:24:50;26.40;99.90
15203;DHT22;7702;51.046;5.184;2022-08-18T11:27:22;26.50;99.90
15203;DHT22;7702;51.046;5.184;2022-08-18T11:29:50;26.60;99.90
15203;DHT22;7702;51.046;5.184;2022-08-18T11:34:45;26.50;99.90
15203;DHT22;7702;51.046;5.184;2022-08-18T11:39:55;26.40;99.90
15203;DHT22;7702;51.046;5.184;2022-08-18T11:42:33;26.90;99.90
15203;DHT22;7702;51.046;5.184;2022-08-18T11:45:14;27.00;99.90
15203;DHT22;7702;51.046;5.184;2022-08-18T11:56:14;28.90;99.90
15203;DHT22;7702;51.046;5.184;2022-08-18T11:58:54;29.10;99.90
15203;DHT22;7702;51.046;5.184;2022-08-18T12:07:03;28.40;99.90
15203;DHT22;7702;51.046;5.184;2022-08-18T12:12:14;28.90;99.90
15203;DHT22;7702;51.046;5.184;2022-08-18T12:17:40;28.60;99.90
15203;DHT22;7702;51.046;5.184;2022-08-18T12:20:07;28.30;99.90
15203;DHT22;7702;51.046;5.184;2022-08-18T12:22:36;28.10;99.90
15203;DHT22;7702;51.046;5.184;2022-08-18T12:25:05;27.60;99.90
15203;DHT22;7702;51.046;5.184;2022-08-18T12:27:31;27.50;99.90
15203;DHT22;7702;51.046;5.184;2022-08-18T12:29:57;28.20;99.90
15203;DHT22;7702;51.046;5.184;2022-08-18T12:32:27;28.70;99.90
15203;DHT22;7702;51.046;5.184;2022-08-18T12:34:53;29.40;99.90
15203;DHT22;7702;51.046;5.184;2022-08-18T12:37:22;30.00;99.90
15203;DHT22;7702;51.046;5.184;2022-08-18T12:39:49;30.60;99.90
15203;DHT22;7702;51.046;5.184;2022-08-18T12:42:15;30.40;99.90
15203;DHT22;7702;51.046;5.184;2022-08-18T12:44:42;30.10;99.90
15203;DHT22;7702;51.046;5.184;2022-08-18T12:47:19;30.10;99.90
15203;DHT22;7702;51.046;5.184;2022-08-18T12:49:46;29.50;99.90
15203;DHT22;7702;51.046;5.184;2022-08-18T12:52:11;28.90;99.90
15203;DHT22;7702;51.046;5.184;2022-08-18T12:54:37;28.80;99.90
15203;DHT22;7702;51.046;5.184;2022-08-18T12:57:06;28.70;99.90
15203;DHT22;7702;51.046;5.184;2022-08-18T12:59:33;28.60;99.90
15203;DHT22;7702;51.046;5.184;2022-08-18T13:02:00;28.40;99.90
15203;DHT22;7702;51.046;5.184;2022-08-18T13:04:26;28.50;99.90
15203;DHT22;7702;51.046;5.184;2022-08-18T13:06:53;28.40;99.90
15203;DHT22;7702;51.046;5.184;2022-08-18T13:09:20;28.30;99.90
15203;DHT22;7702;51.046;5.184;2022-08-18T13:11:46;28.10;99.90
15203;DHT22;7702;51.046;5.184;2022-08-18T13:14:12;28.00;99.90
15203;DHT22;7702;51.046;5.184;2022-08-18T13:16:41;28.10;99.90
15203;DHT22;7702;51.046;5.184;2022-08-18T13:19:08;28.30;99.90
15203;DHT22;7702;51.046;5.184;2022-08-18T13:21:34;28.40;99.90
15203;DHT22;7702;51.046;5.184;2022-08-18T13:24:00;28.50;99.90
15203;DHT22;7702;51.046;5.184;2022-08-18T13:26:29;28.80;99.90
15203;DHT22;7702;51.046;5.184;2022-08-18T13:28:56;29.60;99.90
15203;DHT22;7702;51.046;5.184;2022-08-18T13:31:24;30.30;99.90
15203;DHT22;7702;51.046;5.184;2022-08-18T13:33:51;30.60;99.90
15203;DHT22;7702;51.046;5.184;2022-08-18T13:36:17;31.10;99.90
15203;DHT22;7702;51.046;5.184;2022-08-18T13:38:43;31.30;99.90
15203;DHT22;7702;51.046;5.184;2022-08-18T13:41:10;31.20;99.90
15203;DHT22;7702;51.046;5.184;2022-08-18T13:43:41;31.00;99.90
15203;DHT22;7702;51.046;5.184;2022-08-18T13:46:10;30.50;99.90
15203;DHT22;7702;51.046;5.184;2022-08-18T13:48:37;30.90;99.90
15203;DHT22;7702;51.046;5.184;2022-08-18T13:51:05;31.10;99.90
15203;DHT22;7702;51.046;5.184;2022-08-18T13:53:32;31.40;99.90
15203;DHT22;7702;51.046;5.184;2022-08-18T13:55:58;32.30;99.90
15203;DHT22;7702;51.046;5.184;2022-08-18T13:58:24;32.40;99.90
15203;DHT22;7702;51.046;5.184;2022-08-18T14:00:51;32.30;99.90
15203;DHT22;7702;51.046;5.184;2022-08-18T14:03:20;32.40;99.90
15203;DHT22;7702;51.046;5.184;2022-08-18T14:05:49;32.30;99.90
15203;DHT22;7702;51.046;5.184;2022-08-18T14:08:15;31.50;99.90
15203;DHT22;7702;51.046;5.184;2022-08-18T14:10:41;30.50;99.90
15203;DHT22;7702;51.046;5.184;2022-08-18T14:13:06;30.40;99.90
15203;DHT22;7702;51.046;5.184;2022-08-18T14:15:33;30.20;99.90
15203;DHT22;7702;51.046;5.184;2022-08-18T14:18:04;31.10;99.90
15203;DHT22;7702;51.046;5.184;2022-08-18T14:20:30;31.50;99.90
15203;DHT22;7702;51.046;5.184;2022-08-18T14:23:14;32.30;99.90
15203;DHT22;7702;51.046;5.184;2022-08-18T14:25:59;32.60;99.90
15203;DHT22;7702;51.046;5.184;2022-08-18T14:28:43;32.50;99.90
15203;DHT22;7702;51.046;5.184;2022-08-18T14:31:09;31.40;99.90
15203;DHT22;7702;51.046;5.184;2022-08-18T14:33:36;31.10;99.90
15203;DHT22;7702;51.046;5.184;2022-08-18T14:36:03;30.90;99.90
15203;DHT22;7702;51.046;5.184;2022-08-18T14:38:31;31.00;99.90
15203;DHT22;7702;51.046;5.184;2022-08-18T14:40:58;30.50;99.90
15203;DHT22;7702;51.046;5.184;2022-08-18T14:43:27;29.80;99.90
15203;DHT22;7702;51.046;5.184;2022-08-18T14:45:52;29.70;99.90
15203;DHT22;7702;51.046;5.184;2022-08-18T14:48:20;29.40;99.90
15203;DHT22;7702;51.046;5.184;2022-08-18T14:50:54;29.80;99.90
15203;DHT22;7702;51.046;5.184;2022-08-18T14:53:23;30.20;99.90
15203;DHT22;7702;51.046;5.184;2022-08-18T14:55:51;30.80;99.90
15203;DHT22;7702;51.046;5.184;2022-08-18T14:58:21;30.90;99.90
15203;DHT22;7702;51.046;5.184;2022-08-18T15:01:03;31.30;99.90
15203;DHT22;7702;51.046;5.184;2022-08-18T15:03:32;32.50;99.90
15203;DHT22;7702;51.046;5.184;2022-08-18T15:06:00;32.90;99.90
15203;DHT22;7702;51.046;5.184;2022-08-18T15:08:26;32.70;99.90
15203;DHT22;7702;51.046;5.184;2022-08-18T15:10:53;31.70;99.90
15203;DHT22;7702;51.046;5.184;2022-08-18T15:13:19;31.60;99.90
15203;DHT22;7702;51.046;5.184;2022-08-18T15:15:44;31.80;99.90
15203;DHT22;7702;51.046;5.184;2022-08-18T15:18:11;32.30;99.90
15203;DHT22;7702;51.046;5.184;2022-08-18T15:20:38;32.90;99.60
15203;DHT22;7702;51.046;5.184;2022-08-18T15:23:25;33.40;98.50
15203;DHT22;7702;51.046;5.184;2022-08-18T15:26:10;33.50;97.50
15203;DHT22;7702;51.046;5.184;2022-08-18T15:28:37;34.30;97.00
15203;DHT22;7702;51.046;5.184;2022-08-18T15:31:03;34.50;97.30
15203;DHT22;7702;51.046;5.184;2022-08-18T15:33:29;33.40;95.40
15203;DHT22;7702;51.046;5.184;2022-08-18T15:35:55;32.20;96.50
15203;DHT22;7702;51.046;5.184;2022-08-18T15:38:23;31.50;98.00
15203;DHT22;7702;51.046;5.184;2022-08-18T15:40:57;31.60;98.80
15203;DHT22;7702;51.046;5.184;2022-08-18T15:43:29;32.00;99.10
15203;DHT22;7702;51.046;5.184;2022-08-18T15:45:56;32.30;98.60
15203;DHT22;7702;51.046;5.184;2022-08-18T15:48:24;32.50;98.20
15203;DHT22;7702;51.046;5.184;2022-08-18T15:50:50;32.10;98.30
15203;DHT22;7702;51.046;5.184;2022-08-18T15:53:20;31.30;97.80
15203;DHT22;7702;51.046;5.184;2022-08-18T15:55:46;30.70;99.30
15203;DHT22;7702;51.046;5.184;2022-08-18T15:58:12;30.20;99.90
15203;DHT22;7702;51.046;5.184;2022-08-18T16:00:41;29.60;99.90
15203;DHT22;7702;51.046;5.184;2022-08-18T16:03:08;30.50;99.90
15203;DHT22;7702;51.046;5.184;2022-08-18T16:05:38;30.40;99.90
15203;DHT22;7702;51.046;5.184;2022-08-18T16:08:06;30.20;99.90
15203;DHT22;7702;51.046;5.184;2022-08-18T16:10:35;29.60;99.90
15203;DHT22;7702;51.046;5.184;2022-08-18T16:13:01;28.90;99.90
15203;DHT22;7702;51.046;5.184;2022-08-18T16:15:30;28.50;99.90
15203;DHT22;7702;51.046;5.184;2022-08-18T16:17:58;28.70;99.90
15203;DHT22;7702;51.046;5.184;2022-08-18T16:20:23;29.10;99.90
15203;DHT22;7702;51.046;5.184;2022-08-18T16:22:50;29.40;99.90
15203;DHT22;7702;51.046;5.184;2022-08-18T16:25:16;29.50;99.90
15203;DHT22;7702;51.046;5.184;2022-08-18T16:27:43;29.70;99.90
15203;DHT22;7702;51.046;5.184;2022-08-18T16:30:15;30.30;99.90
15203;DHT22;7702;51.046;5.184;2022-08-18T16:32:41;30.30;99.90
15203;DHT22;7702;51.046;5.184;2022-08-18T16:35:07;30.70;99.90
15203;DHT22;7702;51.046;5.184;2022-08-18T16:37:33;31.30;99.90
15203;DHT22;7702;51.046;5.184;2022-08-18T16:39:59;31.40;99.90
15203;DHT22;7702;51.046;5.184;2022-08-18T16:42:25;31.10;99.90
15203;DHT22;7702;51.046;5.184;2022-08-18T16:44:51;30.40;99.90
15203;DHT22;7702;51.046;5.184;2022-08-18T16:47:17;30.20;99.90
15203;DHT22;7702;51.046;5.184;2022-08-18T16:49:44;30.40;99.90
15203;DHT22;7702;51.046;5.184;2022-08-18T16:52:13;30.20;99.90
15203;DHT22;7702;51.046;5.184;2022-08-18T16:54:40;30.10;99.90
15203;DHT22;7702;51.046;5.184;2022-08-18T16:57:06;29.90;99.90
15203;DHT22;7702;51.046;5.184;2022-08-18T16:59:32;29.50;99.90
15203;DHT22;7702;51.046;5.184;2022-08-18T17:02:16;29.20;99.90
15203;DHT22;7702;51.046;5.184;2022-08-18T17:05:00;29.30;99.90
15203;DHT22;7702;51.046;5.184;2022-08-18T17:07:32;29.10;99.90
15203;DHT22;7702;51.046;5.184;2022-08-18T17:09:58;28.90;99.90
15203;DHT22;7702;51.046;5.184;2022-08-18T17:12:25;28.60;99.90
15203;DHT22;7702;51.046;5.184;2022-08-18T17:14:52;28.40;99.90
15203;DHT22;7702;51.046;5.184;2022-08-18T17:17:19;28.20;99.90
15203;DHT22;7702;51.046;5.184;2022-08-18T17:19:46;27.80;99.90
15203;DHT22;7702;51.046;5.184;2022-08-18T17:22:13;27.60;99.90
15203;DHT22;7702;51.046;5.184;2022-08-18T17:24:39;27.50;99.90
15203;DHT22;7702;51.046;5.184;2022-08-18T17:32:25;26.80;99.90
15203;DHT22;7702;51.046;5.184;2022-08-18T17:34:59;26.80;99.90
15203;DHT22;7702;51.046;5.184;2022-08-18T17:37:27;26.70;99.90
15203;DHT22;7702;51.046;5.184;2022-08-18T17:39:57;26.50;99.90
15203;DHT22;7702;51.046;5.184;2022-08-18T17:42:28;26.50;99.90
15203;DHT22;7702;51.046;5.184;2022-08-18T17:45:05;26.40;99.90
15203;DHT22;7702;51.046;5.184;2022-08-18T17:50:29;26.20;99.90
15203;DHT22;7702;51.046;5.184;2022-08-18T17:53:17;26.20;99.90
15203;DHT22;7702;51.046;5.184;2022-08-18T17:56:11;26.30;99.90
15203;DHT22;7702;51.046;5.184;2022-08-18T18:01:22;26.10;99.90
15203;DHT22;7702;51.046;5.184;2022-08-18T18:03:48;25.90;99.90
15203;DHT22;7702;51.046;5.184;2022-08-18T18:11:34;25.90;99.90
15203;DHT22;7702;51.046;5.184;2022-08-18T18:14:22;25.90;99.90
15203;DHT22;7702;51.046;5.184;2022-08-18T18:17:21;25.90;99.90
15203;DHT22;7702;51.046;5.184;2022-08-18T18:19:56;25.90;99.90
15203;DHT22;7702;51.046;5.184;2022-08-18T18:22:36;25.80;99.90
15203;DHT22;7702;51.046;5.184;2022-08-18T18:25:03;25.70;99.90
15203;DHT22;7702;51.046;5.184;2022-08-18T18:27:41;25.60;99.90
15203;DHT22;7702;51.046;5.184;2022-08-18T18:35:29;25.30;99.90
15203;DHT22;7702;51.046;5.184;2022-08-18T18:38:05;25.00;99.90
15203;DHT22;7702;51.046;5.184;2022-08-18T18:41:01;24.90;99.90
15203;DHT22;7702;51.046;5.184;2022-08-18T18:43:40;24.80;99.90
15203;DHT22;7702;51.046;5.184;2022-08-18T18:46:30;24.80;99.90
15203;DHT22;7702;51.046;5.184;2022-08-18T18:57:25;24.20;99.90
15203;DHT22;7702;51.046;5.184;2022-08-18T19:00:19;24.10;99.90
15203;DHT22;7702;51.046;5.184;2022-08-18T19:03:09;24.00;99.90
15203;DHT22;7702;51.046;5.184;2022-08-18T19:06:05;23.90;99.90
15203;DHT22;7702;51.046;5.184;2022-08-18T19:14:26;23.70;99.90
15203;DHT22;7702;51.046;5.184;2022-08-18T19:17:03;23.60;99.90
15203;DHT22;7702;51.046;5.184;2022-08-18T19:19:44;23.50;99.90
15203;DHT22;7702;51.046;5.184;2022-08-18T19:22:37;23.50;99.90
15203;DHT22;7702;51.046;5.184;2022-08-18T19:27:46;23.40;99.90
15203;DHT22;7702;51.046;5.184;2022-08-18T19:30:15;23.40;99.90
15203;DHT22;7702;51.046;5.184;2022-08-18T19:33:19;23.40;99.90
15203;DHT22;7702;51.046;5.184;2022-08-18T19:46:57;23.20;99.90
15203;DHT22;7702;51.046;5.184;2022-08-18T19:49:34;23.10;99.90
15203;DHT22;7702;51.046;5.184;2022-08-18T19:52:29;23.10;99.90
15203;DHT22;7702;51.046;5.184;2022-08-18T20:05:49;22.50;99.90
15203;DHT22;7702;51.046;5.184;2022-08-18T20:13:56;22.40;99.90
15203;DHT22;7702;51.046;5.184;2022-08-18T20:16:32;22.40;99.90
15203;DHT22;7702;51.046;5.184;2022-08-18T20:19:00;22.30;99.90